sensor_id;sensor_type;location;lat;lon;timestamp;pressure;altitude;pressure_sealevel;temperature;humidity
45523;BME280;31254;51.680;5.394;2023-07-29T00:00:19;100636.72;;;19.08;71.61
45523;BME280;31254;51.680;5.394;2023-07-29T00:02:51;100699.31;;;19.42;71.67
45523;BME280;31254;51.680;5.394;2023-07-29T00:05:26;100713.75;;;19.51;71.92
45523;BME280;31254;51.680;5.394;2023-07-29T00:07:59;100766.16;;;19.99;71.67
45523;BME280;31254;51.680;5.394;2023-07-29T00:10:40;100781.50;;;19.82;72.34
45523;BME280;31254;51.680;5.394;2023-07-29T00:13:11;100700.34;;;19.28;72.22
45523;BME280;31254;51.680;5.394;2023-07-29T00:15:59;100606.47;;;18.66;71.87
45523;BME280;31254;51.680;5.394;2023-07-29T00:18:27;100525.44;;;18.25;72.14
45523;BME280;31254;51.680;5.394;2023-07-29T00:20:54;100718.00;;;19.40;72.33
45523;BME280;31254;51.680;5.394;2023-07-29T00:23:31;100558.38;;;18.40;71.94
45523;BME280;31254;51.680;5.394;2023-07-29T00:26:10;100685.88;;;19.26;72.48
45523;BME280;31254;51.680;5.394;2023-07-29T00:28:45;100633.09;;;18.94;72.07
45523;BME280;31254;51.680;5.394;2023-07-29T00:31:14;100702.25;;;19.27;72.02
45523;BME280;31254;51.680;5.394;2023-07-29T00:33:41;100769.50;;;19.61;72.29
45523;BME280;31254;51.680;5.394;2023-07-29T00:36:08;100736.31;;;19.41;72.41
45523;BME280;31254;51.680;5.394;2023-07-29T00:38:37;100636.88;;;18.79;72.36
45523;BME280;31254;51.680;5.394;2023-07-29T00:41:04;100758.88;;;19.58;72.35
45523;BME280;31254;51.680;5.394;2023-07-29T00:43:32;100704.81;;;19.29;72.27
45523;BME280;31254;51.680;5.394;2023-07-29T00:46:02;100654.16;;;19.02;72.34
45523;BME280;31254;51.680;5.394;2023-07-29T00:48:29;100745.25;;;19.57;72.69
45523;BME280;31254;51.680;5.394;2023-07-29T00:50:57;100606.88;;;18.70;72.39
45523;BME280;31254;51.680;5.394;2023-07-29T00:53:24;100750.16;;;19.54;72.60
45523;BME280;31254;51.680;5.394;2023-07-29T00:55:51;100735.06;;;19.44;72.35
45523;BME280;31254;51.680;5.394;2023-07-29T00:58:19;100752.06;;;19.54;72.42
45523;BME280;31254;51.680;5.394;2023-07-29T01:00:47;100693.72;;;19.22;72.85
45523;BME280;31254;51.680;5.394;2023-07-29T01:03:15;100738.25;;;19.54;72.88
45523;BME280;31254;51.680;5.394;2023-07-29T01:05:54;100736.53;;;19.53;72.40
45523;BME280;31254;51.680;5.394;2023-07-29T01:08:31;100745.69;;;19.53;72.55
45523;BME280;31254;51.680;5.394;2023-07-29T01:16:55;100738.44;;;19.52;73.16
45523;BME280;31254;51.680;5.394;2023-07-29T01:22:56;100716.06;;;19.34;73.16
45523;BME280;31254;51.680;5.394;2023-07-29T01:25:26;100731.00;;;19.40;72.88
45523;BME280;31254;51.680;5.394;2023-07-29T01:28:28;100600.28;;;18.64;73.27
45523;BME280;31254;51.680;5.394;2023-07-29T01:31:43;100755.06;;;19.52;73.55
45523;BME280;31254;51.680;5.394;2023-07-29T01:34:44;100505.41;;;18.10;73.54
45523;BME280;31254;51.680;5.394;2023-07-29T01:37:33;100666.28;;;19.00;73.73
45523;BME280;31254;51.680;5.394;2023-07-29T01:40:09;100719.28;;;19.38;73.65
45523;BME280;31254;51.680;5.394;2023-07-29T01:42:52;100743.16;;;19.52;73.92
45523;BME280;31254;51.680;5.394;2023-07-29T01:45:24;100667.13;;;19.08;74.37
45523;BME280;31254;51.680;5.394;2023-07-29T01:47:55;100733.56;;;19.48;74.50
45523;BME280;31254;51.680;5.394;2023-07-29T01:50:22;100732.03;;;19.45;74.56
45523;BME280;31254;51.680;5.394;2023-07-29T01:52:49;100740.13;;;19.47;74.52
45523;BME280;31254;51.680;5.394;2023-07-29T01:55:18;100610.69;;;18.69;74.21
45523;BME280;31254;51.680;5.394;2023-07-29T01:57:47;100720.56;;;19.42;74.54
45523;BME280;31254;51.680;5.394;2023-07-29T02:00:15;100620.06;;;18.74;74.37
45523;BME280;31254;51.680;5.394;2023-07-29T02:02:45;100700.97;;;19.23;74.60
45523;BME280;31254;51.680;5.394;2023-07-29T02:05:17;100737.59;;;19.52;74.54
45523;BME280;31254;51.680;5.394;2023-07-29T02:07:44;100593.28;;;18.61;74.68
45523;BME280;31254;51.680;5.394;2023-07-29T02:10:14;100718.44;;;19.37;74.57
45523;BME280;31254;51.680;5.394;2023-07-29T02:12:43;100716.09;;;19.41;74.64
45523;BME280;31254;51.680;5.394;2023-07-29T02:15:10;100691.84;;;19.23;75.02
45523;BME280;31254;51.680;5.394;2023-07-29T02:17:42;100705.25;;;19.32;74.60
45523;BME280;31254;51.680;5.394;2023-07-29T02:20:09;100572.41;;;18.52;74.67
45523;BME280;31254;51.680;5.394;2023-07-29T02:22:37;100726.31;;;19.47;74.21
45523;BME280;31254;51.680;5.394;2023-07-29T02:25:04;100658.63;;;19.09;74.20
45523;BME280;31254;51.680;5.394;2023-07-29T02:27:32;100522.44;;;18.27;74.33
45523;BME280;31254;51.680;5.394;2023-07-29T02:30:11;100588.38;;;18.63;74.11
45523;BME280;31254;51.680;5.394;2023-07-29T02:32:41;100709.06;;;19.38;73.99
45523;BME280;31254;51.680;5.394;2023-07-29T02:35:08;100637.34;;;18.90;74.11
45523;BME280;31254;51.680;5.394;2023-07-29T02:37:42;100625.41;;;18.82;73.75
45523;BME280;31254;51.680;5.394;2023-07-29T02:40:27;100713.75;;;19.38;74.04
45523;BME280;31254;51.680;5.394;2023-07-29T02:43:11;100486.91;;;17.97;73.35
45523;BME280;31254;51.680;5.394;2023-07-29T02:45:43;100635.66;;;18.89;73.64
45523;BME280;31254;51.680;5.394;2023-07-29T02:51:16;100597.69;;;18.56;73.44
45523;BME280;31254;51.680;5.394;2023-07-29T02:53:58;100477.25;;;17.86;73.52
45523;BME280;31254;51.680;5.394;2023-07-29T02:56:34;100577.50;;;18.49;73.26
45523;BME280;31254;51.680;5.394;2023-07-29T02:59:14;100720.75;;;19.20;73.05
45523;BME280;31254;51.680;5.394;2023-07-29T03:01:52;100424.31;;;17.49;72.92
45523;BME280;31254;51.680;5.394;2023-07-29T03:04:25;100625.34;;;18.62;72.89
45523;BME280;31254;51.680;5.394;2023-07-29T03:07:05;100713.06;;;19.09;73.20
45523;BME280;31254;51.680;5.394;2023-07-29T03:09:37;100716.88;;;19.08;72.91
45523;BME280;31254;51.680;5.394;2023-07-29T03:12:25;100456.97;;;17.52;72.86
45523;BME280;31254;51.680;5.394;2023-07-29T03:15:02;100723.50;;;19.07;73.08
45523;BME280;31254;51.680;5.394;2023-07-29T03:17:29;100642.13;;;18.61;72.73
45523;BME280;31254;51.680;5.394;2023-07-29T03:20:06;100686.41;;;18.81;72.98
45523;BME280;31254;51.680;5.394;2023-07-29T03:23:02;100577.38;;;18.08;72.83
45523;BME280;31254;51.680;5.394;2023-07-29T03:25:33;100464.38;;;17.45;72.98
45523;BME280;31254;51.680;5.394;2023-07-29T03:28:02;100652.09;;;18.55;72.73
45523;BME280;31254;51.680;5.394;2023-07-29T03:30:32;100670.41;;;18.63;72.98
45523;BME280;31254;51.680;5.394;2023-07-29T03:33:00;100723.00;;;18.90;72.89
45523;BME280;31254;51.680;5.394;2023-07-29T03:35:46;100626.28;;;18.28;73.04
45523;BME280;31254;51.680;5.394;2023-07-29T03:38:34;100515.59;;;17.61;72.53
45523;BME280;31254;51.680;5.394;2023-07-29T03:41:28;100717.63;;;18.75;72.86
45523;BME280;31254;51.680;5.394;2023-07-29T03:44:06;100691.81;;;18.54;73.07
45523;BME280;31254;51.680;5.394;2023-07-29T03:46:49;100660.72;;;18.32;73.03
45523;BME280;31254;51.680;5.394;2023-07-29T03:49:25;100561.50;;;17.76;72.96
45523;BME280;31254;51.680;5.394;2023-07-29T03:51:54;100613.06;;;18.10;73.25
45523;BME280;31254;51.680;5.394;2023-07-29T03:54:29;100676.72;;;18.43;73.04
45523;BME280;31254;51.680;5.394;2023-07-29T03:57:17;100570.41;;;17.78;72.94
45523;BME280;31254;51.680;5.394;2023-07-29T04:00:05;100552.13;;;17.77;73.01
45523;BME280;31254;51.680;5.394;2023-07-29T04:02:43;100541.97;;;17.77;72.92
45523;BME280;31254;51.680;5.394;2023-07-29T04:05:29;100703.34;;;18.64;73.18
45523;BME280;31254;51.680;5.394;2023-07-29T04:08:01;100518.34;;;17.61;73.10
45523;BME280;31254;51.680;5.394;2023-07-29T04:10:30;100552.19;;;17.83;73.32
45523;BME280;31254;51.680;5.394;2023-07-29T04:12:58;100661.00;;;18.44;73.21
45523;BME280;31254;51.680;5.394;2023-07-29T04:15:25;100611.59;;;18.14;73.14
45523;BME280;31254;51.680;5.394;2023-07-29T04:17:52;100609.25;;;18.11;73.00
45523;BME280;31254;51.680;5.394;2023-07-29T04:20:23;100608.56;;;18.09;73.11
45523;BME280;31254;51.680;5.394;2023-07-29T04:22:51;100634.50;;;18.08;73.37
45523;BME280;31254;51.680;5.394;2023-07-29T04:25:19;100705.19;;;18.51;73.15
45523;BME280;31254;51.680;5.394;2023-07-29T04:28:00;100568.59;;;17.57;73.09
45523;BME280;31254;51.680;5.394;2023-07-29T04:30:38;100593.25;;;17.65;73.28
45523;BME280;31254;51.680;5.394;2023-07-29T04:33:11;100721.06;;;18.35;73.32
45523;BME280;31254;51.680;5.394;2023-07-29T04:35:42;100630.47;;;17.76;73.47
45523;BME280;31254;51.680;5.394;2023-07-29T04:38:29;100479.94;;;16.90;73.55
45523;BME280;31254;51.680;5.394;2023-07-29T04:41:07;100538.00;;;17.16;73.74
45523;BME280;31254;51.680;5.394;2023-07-29T04:43:41;100538.50;;;17.27;73.84
45523;BME280;31254;51.680;5.394;2023-07-29T04:46:42;100637.66;;;17.77;73.97
45523;BME280;31254;51.680;5.394;2023-07-29T04:49:25;100720.97;;;18.22;74.36
45523;BME280;31254;51.680;5.394;2023-07-29T04:52:06;100752.94;;;18.38;74.51
45523;BME280;31254;51.680;5.394;2023-07-29T04:54:52;100590.38;;;17.45;74.54
45523;BME280;31254;51.680;5.394;2023-07-29T04:57:22;100732.50;;;18.25;74.60
45523;BME280;31254;51.680;5.394;2023-07-29T05:00:13;100628.06;;;17.66;74.83
45523;BME280;31254;51.680;5.394;2023-07-29T05:02:43;100744.81;;;18.30;74.93
45523;BME280;31254;51.680;5.394;2023-07-29T05:05:13;100717.53;;;18.13;75.37
45523;BME280;31254;51.680;5.394;2023-07-29T05:07:40;100731.63;;;18.25;75.28
45523;BME280;31254;51.680;5.394;2023-07-29T05:10:12;100726.09;;;18.25;75.33
45523;BME280;31254;51.680;5.394;2023-07-29T05:13:08;100742.47;;;18.26;75.62
45523;BME280;31254;51.680;5.394;2023-07-29T05:15:59;100495.06;;;16.79;75.55
45523;BME280;31254;51.680;5.394;2023-07-29T05:19:11;100622.91;;;17.56;75.93
45523;BME280;31254;51.680;5.394;2023-07-29T05:22:04;100593.13;;;17.45;75.84
45523;BME280;31254;51.680;5.394;2023-07-29T05:25:23;100710.50;;;18.11;75.85
45523;BME280;31254;51.680;5.394;2023-07-29T05:28:07;100683.19;;;17.87;75.81
45523;BME280;31254;51.680;5.394;2023-07-29T05:30:36;100770.13;;;18.40;76.09
45523;BME280;31254;51.680;5.394;2023-07-29T05:33:12;100763.78;;;18.39;76.10
45523;BME280;31254;51.680;5.394;2023-07-29T05:35:41;100591.00;;;17.47;76.19
45523;BME280;31254;51.680;5.394;2023-07-29T05:38:34;100755.28;;;18.41;76.26
45523;BME280;31254;51.680;5.394;2023-07-29T05:41:08;100718.41;;;18.20;76.34
45523;BME280;31254;51.680;5.394;2023-07-29T05:44:00;100643.00;;;17.85;76.43
45523;BME280;31254;51.680;5.394;2023-07-29T05:46:48;100647.44;;;17.79;76.33
45523;BME280;31254;51.680;5.394;2023-07-29T05:49:39;100489.25;;;16.89;76.06
45523;BME280;31254;51.680;5.394;2023-07-29T05:52:09;100647.97;;;17.89;76.21
45523;BME280;31254;51.680;5.394;2023-07-29T05:58:41;100656.97;;;18.05;76.44
45523;BME280;31254;51.680;5.394;2023-07-29T06:01:36;100631.91;;;18.00;76.91
45523;BME280;31254;51.680;5.394;2023-07-29T06:04:26;100742.50;;;18.81;77.25
45523;BME280;31254;51.680;5.394;2023-07-29T06:10:50;100577.72;;;17.92;77.59
45523;BME280;31254;51.680;5.394;2023-07-29T06:13:22;100615.00;;;18.16;78.00
45523;BME280;31254;51.680;5.394;2023-07-29T06:16:06;100537.31;;;17.78;78.47
45523;BME280;31254;51.680;5.394;2023-07-29T06:18:57;100578.41;;;18.01;78.38
45523;BME280;31254;51.680;5.394;2023-07-29T06:21:38;100669.59;;;18.69;78.58
45523;BME280;31254;51.680;5.394;2023-07-29T06:24:21;100715.22;;;19.07;78.79
45523;BME280;31254;51.680;5.394;2023-07-29T06:27:00;100617.44;;;18.53;78.54
45523;BME280;31254;51.680;5.394;2023-07-29T06:30:25;100762.47;;;19.45;78.03
45523;BME280;31254;51.680;5.394;2023-07-29T06:33:02;100545.75;;;18.11;78.07
45523;BME280;31254;51.680;5.394;2023-07-29T06:35:49;100616.84;;;18.64;77.82
45523;BME280;31254;51.680;5.394;2023-07-29T06:43:14;100508.81;;;18.19;77.44
45523;BME280;31254;51.680;5.394;2023-07-29T06:46:18;100743.13;;;19.65;78.34
45523;BME280;31254;51.680;5.394;2023-07-29T06:48:48;100757.63;;;19.81;79.18
45523;BME280;31254;51.680;5.394;2023-07-29T06:51:14;100750.00;;;19.83;79.03
45523;BME280;31254;51.680;5.394;2023-07-29T06:53:43;100723.16;;;19.77;79.74
45523;BME280;31254;51.680;5.394;2023-07-29T06:56:10;100745.06;;;19.91;80.00
45523;BME280;31254;51.680;5.394;2023-07-29T06:58:37;100675.66;;;19.53;80.80
45523;BME280;31254;51.680;5.394;2023-07-29T07:01:03;100712.94;;;19.84;80.41
45523;BME280;31254;51.680;5.394;2023-07-29T07:03:32;100685.44;;;19.69;80.73
45523;BME280;31254;51.680;5.394;2023-07-29T07:05:59;100733.56;;;20.08;80.53
45523;BME280;31254;51.680;5.394;2023-07-29T07:08:26;100743.56;;;20.16;80.25
45523;BME280;31254;51.680;5.394;2023-07-29T07:10:53;100757.59;;;20.27;80.26
45523;BME280;31254;51.680;5.394;2023-07-29T07:13:19;100747.38;;;20.28;80.52
45523;BME280;31254;51.680;5.394;2023-07-29T07:15:49;100719.03;;;20.19;80.24
45523;BME280;31254;51.680;5.394;2023-07-29T07:18:22;100740.94;;;20.34;80.24
45523;BME280;31254;51.680;5.394;2023-07-29T07:20:50;100767.31;;;20.63;80.25
45523;BME280;31254;51.680;5.394;2023-07-29T07:23:18;100751.56;;;20.57;80.26
45523;BME280;31254;51.680;5.394;2023-07-29T07:25:45;100730.66;;;20.55;80.42
45523;BME280;31254;51.680;5.394;2023-07-29T07:28:14;100709.78;;;20.52;79.77
45523;BME280;31254;51.680;5.394;2023-07-29T07:30:43;100727.88;;;20.61;79.28
45523;BME280;31254;51.680;5.394;2023-07-29T07:33:10;100778.47;;;21.02;79.28
45523;BME280;31254;51.680;5.394;2023-07-29T07:35:36;100776.97;;;21.06;78.78
45523;BME280;31254;51.680;5.394;2023-07-29T07:38:04;100768.47;;;21.01;78.66
45523;BME280;31254;51.680;5.394;2023-07-29T07:40:31;100780.94;;;21.17;78.66
45523;BME280;31254;51.680;5.394;2023-07-29T07:43:00;100760.75;;;21.03;78.39
45523;BME280;31254;51.680;5.394;2023-07-29T07:45:26;100682.91;;;20.59;78.26
45523;BME280;31254;51.680;5.394;2023-07-29T07:47:56;100792.41;;;21.27;77.97
45523;BME280;31254;51.680;5.394;2023-07-29T07:50:23;100781.41;;;21.14;77.92
45523;BME280;31254;51.680;5.394;2023-07-29T07:52:50;100785.44;;;21.18;77.38
45523;BME280;31254;51.680;5.394;2023-07-29T07:55:17;100786.25;;;21.18;77.35
45523;BME280;31254;51.680;5.394;2023-07-29T07:57:44;100787.53;;;21.23;76.83
45523;BME280;31254;51.680;5.394;2023-07-29T08:00:11;100767.94;;;21.17;77.15
45523;BME280;31254;51.680;5.394;2023-07-29T08:02:43;100750.03;;;21.13;77.57
45523;BME280;31254;51.680;5.394;2023-07-29T08:05:10;100730.03;;;21.05;77.22
45523;BME280;31254;51.680;5.394;2023-07-29T08:07:37;100789.78;;;21.39;76.95
45523;BME280;31254;51.680;5.394;2023-07-29T08:10:04;100779.31;;;21.41;76.67
45523;BME280;31254;51.680;5.394;2023-07-29T08:12:34;100751.25;;;21.24;76.80
45523;BME280;31254;51.680;5.394;2023-07-29T08:15:03;100745.03;;;21.29;76.31
45523;BME280;31254;51.680;5.394;2023-07-29T08:17:32;100782.25;;;21.53;76.06
45523;BME280;31254;51.680;5.394;2023-07-29T08:19:59;100654.25;;;20.79;76.00
45523;BME280;31254;51.680;5.394;2023-07-29T08:22:30;100760.09;;;21.46;75.92
45523;BME280;31254;51.680;5.394;2023-07-29T08:25:00;100687.81;;;21.03;75.88
45523;BME280;31254;51.680;5.394;2023-07-29T08:27:29;100801.72;;;21.78;76.61
45523;BME280;31254;51.680;5.394;2023-07-29T08:29:56;100772.53;;;21.69;77.02
45523;BME280;31254;51.680;5.394;2023-07-29T08:32:22;100796.53;;;21.88;76.52
45523;BME280;31254;51.680;5.394;2023-07-29T08:34:54;100737.34;;;21.63;76.38
45523;BME280;31254;51.680;5.394;2023-07-29T08:37:21;100788.91;;;22.02;76.14
45523;BME280;31254;51.680;5.394;2023-07-29T08:39:48;100793.28;;;22.17;76.89
45523;BME280;31254;51.680;5.394;2023-07-29T08:42:19;100790.19;;;22.25;76.51
45523;BME280;31254;51.680;5.394;2023-07-29T08:44:49;100797.81;;;22.36;75.86
45523;BME280;31254;51.680;5.394;2023-07-29T08:47:16;100795.59;;;22.45;75.64
45523;BME280;31254;51.680;5.394;2023-07-29T08:49:45;100744.03;;;22.24;74.31
45523;BME280;31254;51.680;5.394;2023-07-29T08:52:15;100779.53;;;22.47;73.33
45523;BME280;31254;51.680;5.394;2023-07-29T08:54:42;100787.34;;;22.57;73.26
45523;BME280;31254;51.680;5.394;2023-07-29T08:57:09;100735.47;;;22.25;72.77
45523;BME280;31254;51.680;5.394;2023-07-29T08:59:40;100770.50;;;22.52;72.49
45523;BME280;31254;51.680;5.394;2023-07-29T09:02:06;100758.75;;;22.50;72.50
45523;BME280;31254;51.680;5.394;2023-07-29T09:04:33;100758.22;;;22.59;72.23
45523;BME280;31254;51.680;5.394;2023-07-29T09:07:00;100768.31;;;22.72;72.46
45523;BME280;31254;51.680;5.394;2023-07-29T09:09:27;100783.53;;;22.88;72.43
45523;BME280;31254;51.680;5.394;2023-07-29T09:11:57;100794.56;;;22.95;72.04
45523;BME280;31254;51.680;5.394;2023-07-29T09:14:26;100768.56;;;22.89;70.79
45523;BME280;31254;51.680;5.394;2023-07-29T09:16:53;100752.34;;;22.86;70.63
45523;BME280;31254;51.680;5.394;2023-07-29T09:19:20;100753.56;;;22.90;71.04
45523;BME280;31254;51.680;5.394;2023-07-29T09:21:47;100611.31;;;22.07;70.96
45523;BME280;31254;51.680;5.394;2023-07-29T09:24:16;100777.19;;;23.18;71.13
45523;BME280;31254;51.680;5.394;2023-07-29T09:26:51;100779.00;;;23.24;71.08
45523;BME280;31254;51.680;5.394;2023-07-29T09:29:22;100683.25;;;22.71;70.65
45523;BME280;31254;51.680;5.394;2023-07-29T09:31:50;100781.16;;;23.41;70.08
45523;BME280;31254;51.680;5.394;2023-07-29T09:34:17;100700.88;;;22.95;70.13
45523;BME280;31254;51.680;5.394;2023-07-29T09:36:44;100785.28;;;23.50;69.32
45523;BME280;31254;51.680;5.394;2023-07-29T09:39:12;100776.81;;;23.57;69.35
45523;BME280;31254;51.680;5.394;2023-07-29T09:41:40;100734.91;;;23.40;68.56
45523;BME280;31254;51.680;5.394;2023-07-29T09:44:14;100777.34;;;23.65;68.17
45523;BME280;31254;51.680;5.394;2023-07-29T09:46:46;100768.28;;;23.70;69.50
45523;BME280;31254;51.680;5.394;2023-07-29T09:49:13;100728.28;;;23.52;68.96
45523;BME280;31254;51.680;5.394;2023-07-29T09:51:40;100704.78;;;23.48;67.70
45523;BME280;31254;51.680;5.394;2023-07-29T09:54:11;100745.66;;;23.78;67.63
45523;BME280;31254;51.680;5.394;2023-07-29T09:56:41;100551.09;;;22.69;66.70
45523;BME280;31254;51.680;5.394;2023-07-29T09:59:12;100780.59;;;24.04;66.29
45523;BME280;31254;51.680;5.394;2023-07-29T10:01:40;100777.06;;;24.09;66.18
45523;BME280;31254;51.680;5.394;2023-07-29T10:04:08;100732.09;;;23.82;66.26
45523;BME280;31254;51.680;5.394;2023-07-29T10:06:39;100739.41;;;23.95;66.26
45523;BME280;31254;51.680;5.394;2023-07-29T10:09:11;100745.56;;;23.97;66.21
45523;BME280;31254;51.680;5.394;2023-07-29T10:11:39;100686.19;;;23.72;66.15
45523;BME280;31254;51.680;5.394;2023-07-29T10:14:07;100572.06;;;22.95;64.96
45523;BME280;31254;51.680;5.394;2023-07-29T10:16:40;100786.66;;;24.25;64.85
45523;BME280;31254;51.680;5.394;2023-07-29T10:19:09;100719.38;;;23.86;64.93
45523;BME280;31254;51.680;5.394;2023-07-29T10:21:38;100737.47;;;24.19;65.67
45523;BME280;31254;51.680;5.394;2023-07-29T10:24:09;100775.38;;;24.43;65.98
45523;BME280;31254;51.680;5.394;2023-07-29T10:26:44;100711.41;;;24.13;64.98
45523;BME280;31254;51.680;5.394;2023-07-29T10:29:13;100577.00;;;23.47;64.89
45523;BME280;31254;51.680;5.394;2023-07-29T10:31:43;100628.69;;;23.78;64.79
45523;BME280;31254;51.680;5.394;2023-07-29T10:34:10;100645.78;;;23.94;64.51
45523;BME280;31254;51.680;5.394;2023-07-29T10:36:39;100690.78;;;24.38;64.95
45523;BME280;31254;51.680;5.394;2023-07-29T10:39:07;100700.44;;;24.47;64.89
45523;BME280;31254;51.680;5.394;2023-07-29T10:42:09;100641.59;;;24.32;64.98
45523;BME280;31254;51.680;5.394;2023-07-29T10:47:15;100753.97;;;25.13;63.87
45523;BME280;31254;51.680;5.394;2023-07-29T10:49:46;100671.94;;;24.69;62.84
45523;BME280;31254;51.680;5.394;2023-07-29T10:52:15;100754.19;;;25.24;61.78
45523;BME280;31254;51.680;5.394;2023-07-29T10:54:47;100757.00;;;25.24;61.32
45523;BME280;31254;51.680;5.394;2023-07-29T10:57:38;100723.34;;;25.02;62.36
45523;BME280;31254;51.680;5.394;2023-07-29T11:00:10;100669.66;;;24.66;61.33
45523;BME280;31254;51.680;5.394;2023-07-29T11:02:39;100746.72;;;25.12;61.25
45523;BME280;31254;51.680;5.394;2023-07-29T11:05:17;100731.13;;;24.99;61.85
45523;BME280;31254;51.680;5.394;2023-07-29T11:07:45;100727.72;;;24.97;61.40
45523;BME280;31254;51.680;5.394;2023-07-29T11:10:14;100751.44;;;25.12;61.55
45523;BME280;31254;51.680;5.394;2023-07-29T11:17:39;100713.25;;;24.72;61.84
45523;BME280;31254;51.680;5.394;2023-07-29T11:20:06;100711.22;;;24.67;62.49
45523;BME280;31254;51.680;5.394;2023-07-29T11:22:39;100759.66;;;24.90;62.05
45523;BME280;31254;51.680;5.394;2023-07-29T11:25:11;100744.78;;;24.72;61.64
45523;BME280;31254;51.680;5.394;2023-07-29T11:27:38;100623.97;;;23.90;61.96
45523;BME280;31254;51.680;5.394;2023-07-29T11:30:07;100768.09;;;24.66;61.61
45523;BME280;31254;51.680;5.394;2023-07-29T11:32:44;100793.78;;;24.68;61.94
45523;BME280;31254;51.680;5.394;2023-07-29T11:35:14;100651.81;;;23.79;62.67
45523;BME280;31254;51.680;5.394;2023-07-29T11:44:37;100633.41;;;23.66;63.80
45523;BME280;31254;51.680;5.394;2023-07-29T11:47:40;100811.63;;;24.67;64.09
45523;BME280;31254;51.680;5.394;2023-07-29T11:54:42;100807.13;;;24.54;64.63
45523;BME280;31254;51.680;5.394;2023-07-29T11:57:53;100636.28;;;23.35;64.83
45523;BME280;31254;51.680;5.394;2023-07-29T12:00:55;100803.13;;;24.38;64.65
45523;BME280;31254;51.680;5.394;2023-07-29T12:04:01;100658.09;;;23.50;64.93
45523;BME280;31254;51.680;5.394;2023-07-29T12:18:43;100647.03;;;23.08;66.29
45523;BME280;31254;51.680;5.394;2023-07-29T12:21:14;100778.63;;;23.93;66.69
45523;BME280;31254;51.680;5.394;2023-07-29T12:23:47;100794.13;;;23.89;66.75
45523;BME280;31254;51.680;5.394;2023-07-29T12:26:18;100763.78;;;23.57;67.09
45523;BME280;31254;51.680;5.394;2023-07-29T12:28:50;100813.69;;;23.82;67.04
45523;BME280;31254;51.680;5.394;2023-07-29T12:39:38;100839.81;;;23.69;67.92
45523;BME280;31254;51.680;5.394;2023-07-29T12:45:23;100768.84;;;23.18;68.36
45523;BME280;31254;51.680;5.394;2023-07-29T12:48:04;100712.63;;;22.79;68.38
45523;BME280;31254;51.680;5.394;2023-07-29T12:51:21;100829.81;;;23.50;68.56
45523;BME280;31254;51.680;5.394;2023-07-29T12:54:36;100656.25;;;22.41;69.06
45523;BME280;31254;51.680;5.394;2023-07-29T12:57:15;100699.69;;;22.73;69.39
45523;BME280;31254;51.680;5.394;2023-07-29T13:06:57;100603.84;;;22.08;70.06
45523;BME280;31254;51.680;5.394;2023-07-29T13:09:37;100700.66;;;22.78;70.20
45523;BME280;31254;51.680;5.394;2023-07-29T13:12:18;100742.56;;;23.14;70.11
45523;BME280;31254;51.680;5.394;2023-07-29T13:15:00;100812.41;;;23.54;70.14
45523;BME280;31254;51.680;5.394;2023-07-29T13:17:56;100725.41;;;23.17;70.34
45523;BME280;31254;51.680;5.394;2023-07-29T13:20:31;100825.28;;;23.67;70.53
45523;BME280;31254;51.680;5.394;2023-07-29T13:23:18;100620.00;;;22.67;70.50
45523;BME280;31254;51.680;5.394;2023-07-29T13:25:52;100815.19;;;23.85;70.91
45523;BME280;31254;51.680;5.394;2023-07-29T13:28:49;100728.78;;;23.49;71.22
45523;BME280;31254;51.680;5.394;2023-07-29T13:31:29;100780.59;;;23.93;71.11
45523;BME280;31254;51.680;5.394;2023-07-29T13:34:05;100643.66;;;23.18;71.48
45523;BME280;31254;51.680;5.394;2023-07-29T13:36:35;100685.19;;;23.55;71.86
45523;BME280;31254;51.680;5.394;2023-07-29T13:39:12;100808.94;;;24.49;72.21
45523;BME280;31254;51.680;5.394;2023-07-29T13:41:46;100694.59;;;23.96;72.53
45523;BME280;31254;51.680;5.394;2023-07-29T13:44:15;100662.84;;;23.97;72.68
45523;BME280;31254;51.680;5.394;2023-07-29T13:47:01;100752.19;;;24.67;72.46
45523;BME280;31254;51.680;5.394;2023-07-29T13:49:36;100643.34;;;24.09;72.40
45523;BME280;31254;51.680;5.394;2023-07-29T13:52:07;100801.66;;;25.24;72.27
45523;BME280;31254;51.680;5.394;2023-07-29T13:55:08;100737.41;;;25.07;72.24
45523;BME280;31254;51.680;5.394;2023-07-29T13:58:08;100653.75;;;24.66;71.35
45523;BME280;31254;51.680;5.394;2023-07-29T14:00:44;100649.81;;;24.79;71.80
45523;BME280;31254;51.680;5.394;2023-07-29T14:03:15;100804.56;;;25.75;71.18
45523;BME280;31254;51.680;5.394;2023-07-29T14:05:57;100789.94;;;25.84;70.92
45523;BME280;31254;51.680;5.394;2023-07-29T14:08:33;100727.72;;;25.55;70.83
45523;BME280;31254;51.680;5.394;2023-07-29T14:11:03;100794.19;;;26.04;70.09
45523;BME280;31254;51.680;5.394;2023-07-29T14:13:40;100749.22;;;25.88;69.91
45523;BME280;31254;51.680;5.394;2023-07-29T14:16:33;100714.56;;;25.89;69.92
45523;BME280;31254;51.680;5.394;2023-07-29T14:19:40;100753.94;;;26.22;70.40
45523;BME280;31254;51.680;5.394;2023-07-29T14:22:23;100613.97;;;25.50;69.72
45523;BME280;31254;51.680;5.394;2023-07-29T14:25:08;100713.47;;;26.24;70.16
45523;BME280;31254;51.680;5.394;2023-07-29T14:28:01;100620.34;;;25.85;69.81
45523;BME280;31254;51.680;5.394;2023-07-29T14:30:42;100715.22;;;26.53;70.11
45523;BME280;31254;51.680;5.394;2023-07-29T14:33:30;100580.34;;;25.79;70.20
45523;BME280;31254;51.680;5.394;2023-07-29T14:37:06;100655.94;;;26.51;69.48
45523;BME280;31254;51.680;5.394;2023-07-29T14:40:04;100593.97;;;26.15;69.17
45523;BME280;31254;51.680;5.394;2023-07-29T14:42:50;100738.13;;;27.16;69.24
45523;BME280;31254;51.680;5.394;2023-07-29T14:46:08;100725.50;;;27.13;68.91
45523;BME280;31254;51.680;5.394;2023-07-29T14:48:46;100713.13;;;27.09;68.30